sensor_id;sensor_type;location;lat;lon;timestamp;P1;durP1;ratioP1;P2;durP2;ratioP2
71622;SDS011;59473;53.214;5.728;2023-05-07T00:01:10;29.37;;;16.37;;
71622;SDS011;59473;53.214;5.728;2023-05-07T00:03:36;33.57;;;18.03;;
71622;SDS011;59473;53.214;5.728;2023-05-07T00:06:01;36.83;;;17.53;;
71622;SDS011;59473;53.214;5.728;2023-05-07T00:08:26;34.77;;;17.20;;
71622;SDS011;59473;53.214;5.728;2023-05-07T00:10:51;34.50;;;18.17;;
71622;SDS011;59473;53.214;5.728;2023-05-07T00:13:17;30.27;;;16.90;;
71622;SDS011;59473;53.214;5.728;2023-05-07T00:15:42;33.80;;;17.07;;
71622;SDS011;59473;53.214;5.728;2023-05-07T00:18:07;34.87;;;18.07;;
71622;SDS011;59473;53.214;5.728;2023-05-07T00:20:32;33.40;;;18.37;;
71622;SDS011;59473;53.214;5.728;2023-05-07T00:22:57;34.30;;;17.73;;
71622;SDS011;59473;53.214;5.728;2023-05-07T00:25:23;30.83;;;16.87;;
71622;SDS011;59473;53.214;5.728;2023-05-07T00:27:48;33.73;;;17.50;;
71622;SDS011;59473;53.214;5.728;2023-05-07T00:30:13;33.83;;;18.52;;
71622;SDS011;59473;53.214;5.728;2023-05-07T00:32:39;32.22;;;17.48;;
71622;SDS011;59473;53.214;5.728;2023-05-07T00:35:05;28.23;;;16.20;;
71622;SDS011;59473;53.214;5.728;2023-05-07T00:37:30;34.70;;;17.80;;
71622;SDS011;59473;53.214;5.728;2023-05-07T00:39:56;32.00;;;17.25;;
71622;SDS011;59473;53.214;5.728;2023-05-07T00:42:21;34.70;;;17.33;;
71622;SDS011;59473;53.214;5.728;2023-05-07T00:44:46;30.53;;;17.20;;
71622;SDS011;59473;53.214;5.728;2023-05-07T00:47:12;36.83;;;18.80;;
71622;SDS011;59473;53.214;5.728;2023-05-07T00:49:38;32.78;;;17.05;;
71622;SDS011;59473;53.214;5.728;2023-05-07T00:52:04;32.65;;;17.75;;
71622;SDS011;59473;53.214;5.728;2023-05-07T00:54:30;32.60;;;17.90;;
71622;SDS011;59473;53.214;5.728;2023-05-07T00:56:55;30.58;;;16.73;;
71622;SDS011;59473;53.214;5.728;2023-05-07T00:59:21;32.07;;;16.50;;
71622;SDS011;59473;53.214;5.728;2023-05-07T01:01:46;32.13;;;16.87;;
71622;SDS011;59473;53.214;5.728;2023-05-07T01:04:11;34.03;;;16.23;;
71622;SDS011;59473;53.214;5.728;2023-05-07T01:06:37;26.40;;;15.80;;
71622;SDS011;59473;53.214;5.728;2023-05-07T01:09:02;33.23;;;17.40;;
71622;SDS011;59473;53.214;5.728;2023-05-07T01:11:29;31.02;;;17.23;;
71622;SDS011;59473;53.214;5.728;2023-05-07T01:13:54;36.17;;;17.57;;
71622;SDS011;59473;53.214;5.728;2023-05-07T01:16:20;33.27;;;16.17;;
71622;SDS011;59473;53.214;5.728;2023-05-07T01:18:45;29.03;;;16.23;;
71622;SDS011;59473;53.214;5.728;2023-05-07T01:21:13;29.67;;;15.75;;
71622;SDS011;59473;53.214;5.728;2023-05-07T01:23:40;28.13;;;16.25;;
71622;SDS011;59473;53.214;5.728;2023-05-07T01:26:06;32.70;;;17.13;;
71622;SDS011;59473;53.214;5.728;2023-05-07T01:28:31;29.47;;;16.33;;
71622;SDS011;59473;53.214;5.728;2023-05-07T01:30:59;34.67;;;17.13;;
71622;SDS011;59473;53.214;5.728;2023-05-07T01:33:26;32.07;;;17.43;;
71622;SDS011;59473;53.214;5.728;2023-05-07T01:35:53;29.85;;;16.00;;
71622;SDS011;59473;53.214;5.728;2023-05-07T01:38:18;30.50;;;15.93;;
71622;SDS011;59473;53.214;5.728;2023-05-07T01:40:44;35.88;;;17.92;;
71622;SDS011;59473;53.214;5.728;2023-05-07T01:43:10;33.17;;;16.23;;
71622;SDS011;59473;53.214;5.728;2023-05-07T01:45:35;32.30;;;16.67;;
71622;SDS011;59473;53.214;5.728;2023-05-07T01:48:01;32.13;;;17.50;;
71622;SDS011;59473;53.214;5.728;2023-05-07T01:50:26;33.42;;;17.35;;
71622;SDS011;59473;53.214;5.728;2023-05-07T01:52:52;30.93;;;15.43;;
71622;SDS011;59473;53.214;5.728;2023-05-07T01:55:17;34.03;;;17.13;;
71622;SDS011;59473;53.214;5.728;2023-05-07T01:57:43;34.60;;;17.87;;
71622;SDS011;59473;53.214;5.728;2023-05-07T02:00:08;35.33;;;17.83;;
71622;SDS011;59473;53.214;5.728;2023-05-07T02:02:34;32.20;;;18.40;;
71622;SDS011;59473;53.214;5.728;2023-05-07T02:04:59;36.60;;;17.07;;
71622;SDS011;59473;53.214;5.728;2023-05-07T02:07:25;34.47;;;17.55;;
71622;SDS011;59473;53.214;5.728;2023-05-07T02:09:51;39.37;;;18.57;;
71622;SDS011;59473;53.214;5.728;2023-05-07T02:12:16;35.37;;;19.50;;
71622;SDS011;59473;53.214;5.728;2023-05-07T02:14:41;35.13;;;18.50;;
71622;SDS011;59473;53.214;5.728;2023-05-07T02:17:07;32.47;;;18.67;;
71622;SDS011;59473;53.214;5.728;2023-05-07T02:19:32;35.07;;;20.47;;
71622;SDS011;59473;53.214;5.728;2023-05-07T02:21:57;35.53;;;18.97;;
71622;SDS011;59473;53.214;5.728;2023-05-07T02:24:23;34.20;;;18.38;;
71622;SDS011;59473;53.214;5.728;2023-05-07T02:26:48;39.07;;;20.30;;
71622;SDS011;59473;53.214;5.728;2023-05-07T02:29:13;37.73;;;18.70;;
71622;SDS011;59473;53.214;5.728;2023-05-07T02:31:38;35.57;;;20.50;;
71622;SDS011;59473;53.214;5.728;2023-05-07T02:34:04;35.17;;;18.97;;
71622;SDS011;59473;53.214;5.728;2023-05-07T02:36:29;38.47;;;19.33;;
71622;SDS011;59473;53.214;5.728;2023-05-07T02:38:54;40.87;;;20.27;;
71622;SDS011;59473;53.214;5.728;2023-05-07T02:41:19;40.30;;;22.63;;
71622;SDS011;59473;53.214;5.728;2023-05-07T02:43:45;37.47;;;20.97;;
71622;SDS011;59473;53.214;5.728;2023-05-07T02:46:10;38.70;;;21.93;;
71622;SDS011;59473;53.214;5.728;2023-05-07T02:48:36;42.27;;;22.47;;
71622;SDS011;59473;53.214;5.728;2023-05-07T02:51:02;37.37;;;20.20;;
71622;SDS011;59473;53.214;5.728;2023-05-07T02:53:28;38.85;;;20.85;;
71622;SDS011;59473;53.214;5.728;2023-05-07T02:55:55;40.08;;;20.67;;
71622;SDS011;59473;53.214;5.728;2023-05-07T02:58:20;41.10;;;20.25;;
71622;SDS011;59473;53.214;5.728;2023-05-07T03:00:46;41.10;;;21.60;;
71622;SDS011;59473;53.214;5.728;2023-05-07T03:03:11;40.10;;;21.67;;
71622;SDS011;59473;53.214;5.728;2023-05-07T03:05:36;43.83;;;21.00;;
71622;SDS011;59473;53.214;5.728;2023-05-07T03:08:02;41.03;;;21.30;;
71622;SDS011;59473;53.214;5.728;2023-05-07T03:10:27;37.47;;;20.17;;
71622;SDS011;59473;53.214;5.728;2023-05-07T03:12:52;37.00;;;20.53;;
71622;SDS011;59473;53.214;5.728;2023-05-07T03:15:18;36.70;;;18.83;;
71622;SDS011;59473;53.214;5.728;2023-05-07T03:17:43;37.93;;;21.00;;
71622;SDS011;59473;53.214;5.728;2023-05-07T03:20:08;41.17;;;20.67;;
71622;SDS011;59473;53.214;5.728;2023-05-07T03:22:34;37.17;;;21.40;;
71622;SDS011;59473;53.214;5.728;2023-05-07T03:24:59;36.53;;;19.27;;
71622;SDS011;59473;53.214;5.728;2023-05-07T03:27:25;38.07;;;20.57;;
71622;SDS011;59473;53.214;5.728;2023-05-07T03:29:50;39.80;;;20.27;;
71622;SDS011;59473;53.214;5.728;2023-05-07T03:32:15;40.53;;;22.20;;
71622;SDS011;59473;53.214;5.728;2023-05-07T03:34:40;37.40;;;21.10;;
71622;SDS011;59473;53.214;5.728;2023-05-07T03:37:06;39.00;;;21.00;;
71622;SDS011;59473;53.214;5.728;2023-05-07T03:39:31;35.40;;;19.25;;
71622;SDS011;59473;53.214;5.728;2023-05-07T03:41:57;35.50;;;18.97;;
71622;SDS011;59473;53.214;5.728;2023-05-07T03:44:22;38.30;;;21.00;;
71622;SDS011;59473;53.214;5.728;2023-05-07T03:46:48;41.60;;;21.57;;
71622;SDS011;59473;53.214;5.728;2023-05-07T03:49:13;40.10;;;21.00;;
71622;SDS011;59473;53.214;5.728;2023-05-07T03:51:38;31.33;;;18.83;;
71622;SDS011;59473;53.214;5.728;2023-05-07T03:54:03;42.83;;;22.03;;
71622;SDS011;59473;53.214;5.728;2023-05-07T03:56:28;42.60;;;23.27;;
71622;SDS011;59473;53.214;5.728;2023-05-07T03:58:54;41.03;;;22.40;;
71622;SDS011;59473;53.214;5.728;2023-05-07T04:01:19;43.80;;;23.20;;
71622;SDS011;59473;53.214;5.728;2023-05-07T04:03:45;44.07;;;22.97;;
71622;SDS011;59473;53.214;5.728;2023-05-07T04:06:10;41.40;;;21.93;;
71622;SDS011;59473;53.214;5.728;2023-05-07T04:08:35;45.00;;;23.33;;
71622;SDS011;59473;53.214;5.728;2023-05-07T04:11:00;38.93;;;20.83;;
71622;SDS011;59473;53.214;5.728;2023-05-07T04:13:26;43.55;;;21.58;;
71622;SDS011;59473;53.214;5.728;2023-05-07T04:15:51;46.65;;;22.92;;
71622;SDS011;59473;53.214;5.728;2023-05-07T04:18:17;42.97;;;21.55;;
71622;SDS011;59473;53.214;5.728;2023-05-07T04:20:42;44.13;;;23.43;;
71622;SDS011;59473;53.214;5.728;2023-05-07T04:23:07;40.90;;;20.97;;
71622;SDS011;59473;53.214;5.728;2023-05-07T04:25:33;39.03;;;20.77;;
71622;SDS011;59473;53.214;5.728;2023-05-07T04:27:59;47.13;;;23.37;;
71622;SDS011;59473;53.214;5.728;2023-05-07T04:30:24;44.37;;;23.00;;
71622;SDS011;59473;53.214;5.728;2023-05-07T04:32:49;38.10;;;22.23;;
71622;SDS011;59473;53.214;5.728;2023-05-07T04:35:14;50.07;;;24.17;;
71622;SDS011;59473;53.214;5.728;2023-05-07T04:37:39;41.13;;;22.23;;
71622;SDS011;59473;53.214;5.728;2023-05-07T04:40:05;44.30;;;22.20;;
71622;SDS011;59473;53.214;5.728;2023-05-07T04:42:30;46.60;;;24.33;;
71622;SDS011;59473;53.214;5.728;2023-05-07T04:44:56;40.47;;;21.95;;
71622;SDS011;59473;53.214;5.728;2023-05-07T04:47:21;42.63;;;22.73;;
71622;SDS011;59473;53.214;5.728;2023-05-07T04:49:46;47.93;;;23.90;;
71622;SDS011;59473;53.214;5.728;2023-05-07T04:52:11;48.07;;;23.27;;
71622;SDS011;59473;53.214;5.728;2023-05-07T04:54:37;39.90;;;21.93;;
71622;SDS011;59473;53.214;5.728;2023-05-07T04:57:03;40.83;;;19.97;;
71622;SDS011;59473;53.214;5.728;2023-05-07T04:59:28;42.83;;;22.73;;
71622;SDS011;59473;53.214;5.728;2023-05-07T05:01:53;40.17;;;21.50;;
71622;SDS011;59473;53.214;5.728;2023-05-07T05:04:18;42.53;;;23.40;;
71622;SDS011;59473;53.214;5.728;2023-05-07T05:06:44;45.03;;;23.93;;
71622;SDS011;59473;53.214;5.728;2023-05-07T05:09:09;45.17;;;23.27;;
71622;SDS011;59473;53.214;5.728;2023-05-07T05:11:34;45.67;;;25.13;;
71622;SDS011;59473;53.214;5.728;2023-05-07T05:14:00;42.43;;;20.67;;
71622;SDS011;59473;53.214;5.728;2023-05-07T05:16:25;45.03;;;24.57;;
71622;SDS011;59473;53.214;5.728;2023-05-07T05:18:51;48.60;;;25.17;;
71622;SDS011;59473;53.214;5.728;2023-05-07T05:21:17;44.70;;;23.98;;
71622;SDS011;59473;53.214;5.728;2023-05-07T05:23:42;42.70;;;22.10;;
71622;SDS011;59473;53.214;5.728;2023-05-07T05:26:07;41.93;;;23.00;;
71622;SDS011;59473;53.214;5.728;2023-05-07T05:28:32;47.40;;;24.43;;
71622;SDS011;59473;53.214;5.728;2023-05-07T05:30:58;46.83;;;25.80;;
71622;SDS011;59473;53.214;5.728;2023-05-07T05:33:23;50.77;;;24.33;;
71622;SDS011;59473;53.214;5.728;2023-05-07T05:35:49;43.63;;;22.43;;
71622;SDS011;59473;53.214;5.728;2023-05-07T05:38:14;44.58;;;24.15;;
71622;SDS011;59473;53.214;5.728;2023-05-07T05:40:39;47.90;;;24.70;;
71622;SDS011;59473;53.214;5.728;2023-05-07T05:43:05;47.43;;;25.80;;
71622;SDS011;59473;53.214;5.728;2023-05-07T05:45:30;47.22;;;24.55;;
71622;SDS011;59473;53.214;5.728;2023-05-07T05:47:56;41.70;;;22.63;;
71622;SDS011;59473;53.214;5.728;2023-05-07T05:50:21;45.73;;;21.50;;
71622;SDS011;59473;53.214;5.728;2023-05-07T05:52:46;48.07;;;24.43;;
71622;SDS011;59473;53.214;5.728;2023-05-07T05:55:12;54.93;;;26.30;;
71622;SDS011;59473;53.214;5.728;2023-05-07T05:57:37;45.03;;;24.37;;
71622;SDS011;59473;53.214;5.728;2023-05-07T06:00:03;48.47;;;24.83;;
71622;SDS011;59473;53.214;5.728;2023-05-07T06:02:29;51.88;;;25.27;;
71622;SDS011;59473;53.214;5.728;2023-05-07T06:04:54;47.92;;;25.15;;
71622;SDS011;59473;53.214;5.728;2023-05-07T06:07:20;47.17;;;24.37;;
71622;SDS011;59473;53.214;5.728;2023-05-07T06:09:45;49.50;;;25.07;;
71622;SDS011;59473;53.214;5.728;2023-05-07T06:12:11;50.13;;;25.17;;
71622;SDS011;59473;53.214;5.728;2023-05-07T06:14:36;47.57;;;24.87;;
71622;SDS011;59473;53.214;5.728;2023-05-07T06:17:01;49.43;;;27.57;;
71622;SDS011;59473;53.214;5.728;2023-05-07T06:19:26;48.00;;;25.27;;
71622;SDS011;59473;53.214;5.728;2023-05-07T06:21:53;56.28;;;26.33;;
71622;SDS011;59473;53.214;5.728;2023-05-07T06:24:18;49.50;;;25.33;;
71622;SDS011;59473;53.214;5.728;2023-05-07T06:26:43;44.17;;;23.33;;
71622;SDS011;59473;53.214;5.728;2023-05-07T06:29:09;42.93;;;23.77;;
71622;SDS011;59473;53.214;5.728;2023-05-07T06:31:34;44.20;;;24.30;;
71622;SDS011;59473;53.214;5.728;2023-05-07T06:33:59;43.85;;;23.90;;
71622;SDS011;59473;53.214;5.728;2023-05-07T06:36:24;45.15;;;24.73;;
71622;SDS011;59473;53.214;5.728;2023-05-07T06:38:50;45.53;;;24.03;;
71622;SDS011;59473;53.214;5.728;2023-05-07T06:41:15;39.38;;;22.98;;
71622;SDS011;59473;53.214;5.728;2023-05-07T06:43:40;39.70;;;23.98;;
71622;SDS011;59473;53.214;5.728;2023-05-07T06:46:05;37.88;;;21.48;;
71622;SDS011;59473;53.214;5.728;2023-05-07T06:48:30;36.47;;;20.98;;
71622;SDS011;59473;53.214;5.728;2023-05-07T06:50:56;42.03;;;21.77;;
71622;SDS011;59473;53.214;5.728;2023-05-07T06:53:22;36.60;;;22.25;;
71622;SDS011;59473;53.214;5.728;2023-05-07T06:55:47;36.27;;;20.20;;
71622;SDS011;59473;53.214;5.728;2023-05-07T06:58:13;36.90;;;21.58;;
71622;SDS011;59473;53.214;5.728;2023-05-07T07:00:38;39.10;;;21.85;;
71622;SDS011;59473;53.214;5.728;2023-05-07T07:03:03;32.15;;;19.38;;
71622;SDS011;59473;53.214;5.728;2023-05-07T07:05:28;32.50;;;18.80;;
71622;SDS011;59473;53.214;5.728;2023-05-07T07:07:54;34.87;;;19.83;;
71622;SDS011;59473;53.214;5.728;2023-05-07T07:10:19;36.80;;;19.90;;
71622;SDS011;59473;53.214;5.728;2023-05-07T07:12:45;33.27;;;18.47;;
71622;SDS011;59473;53.214;5.728;2023-05-07T07:15:10;34.67;;;20.67;;
71622;SDS011;59473;53.214;5.728;2023-05-07T07:17:36;26.67;;;16.90;;
71622;SDS011;59473;53.214;5.728;2023-05-07T07:20:01;34.90;;;21.13;;
71622;SDS011;59473;53.214;5.728;2023-05-07T07:22:26;34.33;;;21.30;;
71622;SDS011;59473;53.214;5.728;2023-05-07T07:24:51;36.40;;;20.13;;
71622;SDS011;59473;53.214;5.728;2023-05-07T07:27:16;32.87;;;19.57;;
71622;SDS011;59473;53.214;5.728;2023-05-07T07:29:42;35.07;;;20.43;;
71622;SDS011;59473;53.214;5.728;2023-05-07T07:32:07;32.53;;;18.60;;
71622;SDS011;59473;53.214;5.728;2023-05-07T07:34:32;33.67;;;19.73;;
71622;SDS011;59473;53.214;5.728;2023-05-07T07:36:58;31.70;;;18.53;;
71622;SDS011;59473;53.214;5.728;2023-05-07T07:39:23;32.30;;;18.27;;
71622;SDS011;59473;53.214;5.728;2023-05-07T07:41:48;29.70;;;18.17;;
71622;SDS011;59473;53.214;5.728;2023-05-07T07:44:13;29.33;;;19.20;;
71622;SDS011;59473;53.214;5.728;2023-05-07T07:46:39;28.93;;;17.93;;
71622;SDS011;59473;53.214;5.728;2023-05-07T07:49:04;30.13;;;17.60;;
71622;SDS011;59473;53.214;5.728;2023-05-07T07:51:29;30.90;;;18.63;;
71622;SDS011;59473;53.214;5.728;2023-05-07T07:53:55;26.85;;;16.52;;
71622;SDS011;59473;53.214;5.728;2023-05-07T07:56:22;29.35;;;17.73;;
71622;SDS011;59473;53.214;5.728;2023-05-07T07:58:47;30.90;;;17.30;;
71622;SDS011;59473;53.214;5.728;2023-05-07T08:01:13;25.50;;;16.00;;
71622;SDS011;59473;53.214;5.728;2023-05-07T08:03:38;29.33;;;17.20;;
71622;SDS011;59473;53.214;5.728;2023-05-07T08:06:03;30.93;;;18.20;;
71622;SDS011;59473;53.214;5.728;2023-05-07T08:08:28;26.53;;;17.30;;
71622;SDS011;59473;53.214;5.728;2023-05-07T08:10:54;26.33;;;17.20;;
71622;SDS011;59473;53.214;5.728;2023-05-07T08:13:19;26.53;;;17.20;;
71622;SDS011;59473;53.214;5.728;2023-05-07T08:15:44;29.23;;;16.73;;
71622;SDS011;59473;53.214;5.728;2023-05-07T08:18:10;26.00;;;16.60;;
71622;SDS011;59473;53.214;5.728;2023-05-07T08:20:35;23.70;;;15.73;;
71622;SDS011;59473;53.214;5.728;2023-05-07T08:23:04;26.77;;;17.55;;
71622;SDS011;59473;53.214;5.728;2023-05-07T08:25:29;26.60;;;16.93;;
71622;SDS011;59473;53.214;5.728;2023-05-07T08:27:54;25.07;;;15.57;;
71622;SDS011;59473;53.214;5.728;2023-05-07T08:30:20;26.90;;;16.43;;
71622;SDS011;59473;53.214;5.728;2023-05-07T08:32:45;27.70;;;17.80;;
71622;SDS011;59473;53.214;5.728;2023-05-07T08:35:10;23.03;;;15.67;;
71622;SDS011;59473;53.214;5.728;2023-05-07T08:37:36;27.47;;;16.67;;
71622;SDS011;59473;53.214;5.728;2023-05-07T08:40:01;25.60;;;16.47;;
71622;SDS011;59473;53.214;5.728;2023-05-07T08:42:26;26.83;;;16.03;;
71622;SDS011;59473;53.214;5.728;2023-05-07T08:44:52;20.90;;;13.90;;
71622;SDS011;59473;53.214;5.728;2023-05-07T08:47:20;25.83;;;14.77;;
71622;SDS011;59473;53.214;5.728;2023-05-07T08:49:46;27.23;;;16.35;;
71622;SDS011;59473;53.214;5.728;2023-05-07T08:52:12;24.17;;;16.70;;
71622;SDS011;59473;53.214;5.728;2023-05-07T08:54:38;25.43;;;15.53;;
71622;SDS011;59473;53.214;5.728;2023-05-07T08:57:04;24.10;;;15.50;;
71622;SDS011;59473;53.214;5.728;2023-05-07T08:59:29;23.77;;;15.20;;
71622;SDS011;59473;53.214;5.728;2023-05-07T09:01:55;24.40;;;16.35;;
71622;SDS011;59473;53.214;5.728;2023-05-07T09:04:20;24.20;;;14.50;;
71622;SDS011;59473;53.214;5.728;2023-05-07T09:06:45;23.57;;;16.57;;
71622;SDS011;59473;53.214;5.728;2023-05-07T09:09:14;24.85;;;16.08;;
71622;SDS011;59473;53.214;5.728;2023-05-07T09:11:42;24.87;;;14.67;;
71622;SDS011;59473;53.214;5.728;2023-05-07T09:14:07;23.90;;;16.13;;
71622;SDS011;59473;53.214;5.728;2023-05-07T09:16:32;23.45;;;15.93;;
71622;SDS011;59473;53.214;5.728;2023-05-07T09:18:58;24.13;;;15.30;;
71622;SDS011;59473;53.214;5.728;2023-05-07T09:21:24;23.77;;;14.43;;
71622;SDS011;59473;53.214;5.728;2023-05-07T09:23:53;24.67;;;16.47;;
71622;SDS011;59473;53.214;5.728;2023-05-07T09:26:21;23.42;;;15.13;;
71622;SDS011;59473;53.214;5.728;2023-05-07T09:28:46;26.23;;;15.95;;
71622;SDS011;59473;53.214;5.728;2023-05-07T09:31:11;25.50;;;15.90;;
71622;SDS011;59473;53.214;5.728;2023-05-07T09:33:37;22.37;;;15.50;;
71622;SDS011;59473;53.214;5.728;2023-05-07T09:36:03;23.90;;;14.75;;
71622;SDS011;59473;53.214;5.728;2023-05-07T09:38:28;23.67;;;15.38;;
71622;SDS011;59473;53.214;5.728;2023-05-07T09:41:03;27.10;;;16.23;;
71622;SDS011;59473;53.214;5.728;2023-05-07T09:43:31;24.55;;;16.52;;
71622;SDS011;59473;53.214;5.728;2023-05-07T09:45:57;24.43;;;15.73;;
71622;SDS011;59473;53.214;5.728;2023-05-07T09:48:23;24.75;;;15.75;;
71622;SDS011;59473;53.214;5.728;2023-05-07T09:50:49;25.50;;;16.43;;
71622;SDS011;59473;53.214;5.728;2023-05-07T09:53:16;24.60;;;15.95;;
71622;SDS011;59473;53.214;5.728;2023-05-07T09:55:41;24.95;;;15.70;;
71622;SDS011;59473;53.214;5.728;2023-05-07T09:58:07;24.27;;;15.30;;
71622;SDS011;59473;53.214;5.728;2023-05-07T10:00:32;22.13;;;15.37;;
71622;SDS011;59473;53.214;5.728;2023-05-07T10:02:58;24.85;;;15.57;;
71622;SDS011;59473;53.214;5.728;2023-05-07T10:05:24;23.45;;;16.50;;
71622;SDS011;59473;53.214;5.728;2023-05-07T10:07:50;26.63;;;17.55;;
71622;SDS011;59473;53.214;5.728;2023-05-07T10:10:16;24.07;;;16.07;;
71622;SDS011;59473;53.214;5.728;2023-05-07T10:12:42;23.58;;;15.32;;
71622;SDS011;59473;53.214;5.728;2023-05-07T10:15:07;25.93;;;17.90;;
71622;SDS011;59473;53.214;5.728;2023-05-07T10:17:36;24.67;;;16.70;;
71622;SDS011;59473;53.214;5.728;2023-05-07T10:20:02;26.33;;;16.80;;
71622;SDS011;59473;53.214;5.728;2023-05-07T10:22:28;25.60;;;15.95;;
71622;SDS011;59473;53.214;5.728;2023-05-07T10:24:54;23.05;;;16.58;;
71622;SDS011;59473;53.214;5.728;2023-05-07T10:27:21;23.30;;;15.23;;
71622;SDS011;59473;53.214;5.728;2023-05-07T10:34:50;26.95;;;17.27;;
71622;SDS011;59473;53.214;5.728;2023-05-07T10:37:16;24.15;;;14.50;;
71622;SDS011;59473;53.214;5.728;2023-05-07T10:39:41;25.87;;;16.60;;
71622;SDS011;59473;53.214;5.728;2023-05-07T10:42:10;26.53;;;18.27;;
71622;SDS011;59473;53.214;5.728;2023-05-07T10:44:35;25.50;;;15.65;;
71622;SDS011;59473;53.214;5.728;2023-05-07T10:47:05;25.73;;;16.00;;
71622;SDS011;59473;53.214;5.728;2023-05-07T10:49:31;25.23;;;16.83;;
71622;SDS011;59473;53.214;5.728;2023-05-07T10:55:40;25.80;;;17.13;;
71622;SDS011;59473;53.214;5.728;2023-05-07T10:57:43;24.20;;;15.65;;
71622;SDS011;59473;53.214;5.728;2023-05-07T11:03:04;25.63;;;17.08;;
71622;SDS011;59473;53.214;5.728;2023-05-07T11:05:31;24.42;;;16.02;;
71622;SDS011;59473;53.214;5.728;2023-05-07T11:07:57;27.15;;;17.27;;
71622;SDS011;59473;53.214;5.728;2023-05-07T11:10:23;26.63;;;17.27;;
71622;SDS011;59473;53.214;5.728;2023-05-07T11:12:52;25.70;;;16.67;;
71622;SDS011;59473;53.214;5.728;2023-05-07T11:15:33;24.90;;;16.03;;
71622;SDS011;59473;53.214;5.728;2023-05-07T11:17:59;23.98;;;15.55;;
71622;SDS011;59473;53.214;5.728;2023-05-07T11:23:20;23.08;;;16.10;;
71622;SDS011;59473;53.214;5.728;2023-05-07T11:25:58;25.10;;;15.88;;
71622;SDS011;59473;53.214;5.728;2023-05-07T11:28:24;23.70;;;16.00;;
71622;SDS011;59473;53.214;5.728;2023-05-07T11:30:49;25.00;;;15.93;;
71622;SDS011;59473;53.214;5.728;2023-05-07T11:33:16;24.25;;;15.98;;
71622;SDS011;59473;53.214;5.728;2023-05-07T11:35:42;24.67;;;16.53;;
71622;SDS011;59473;53.214;5.728;2023-05-07T11:38:07;25.85;;;17.67;;
71622;SDS011;59473;53.214;5.728;2023-05-07T11:40:32;23.30;;;15.40;;
71622;SDS011;59473;53.214;5.728;2023-05-07T11:42:58;26.87;;;17.20;;
71622;SDS011;59473;53.214;5.728;2023-05-07T11:45:23;25.57;;;16.40;;
71622;SDS011;59473;53.214;5.728;2023-05-07T11:47:51;25.67;;;16.07;;
71622;SDS011;59473;53.214;5.728;2023-05-07T11:50:16;24.73;;;15.73;;
71622;SDS011;59473;53.214;5.728;2023-05-07T11:52:49;25.80;;;16.97;;
71622;SDS011;59473;53.214;5.728;2023-05-07T11:55:15;24.25;;;16.20;;
71622;SDS011;59473;53.214;5.728;2023-05-07T11:57:42;25.83;;;17.52;;
71622;SDS011;59473;53.214;5.728;2023-05-07T12:00:08;22.77;;;14.73;;
71622;SDS011;59473;53.214;5.728;2023-05-07T12:02:34;24.40;;;17.08;;
71622;SDS011;59473;53.214;5.728;2023-05-07T12:05:00;24.80;;;17.60;;
71622;SDS011;59473;53.214;5.728;2023-05-07T12:07:25;24.52;;;16.55;;
71622;SDS011;59473;53.214;5.728;2023-05-07T12:09:50;25.77;;;17.07;;
71622;SDS011;59473;53.214;5.728;2023-05-07T12:12:15;26.37;;;16.73;;
71622;SDS011;59473;53.214;5.728;2023-05-07T12:14:42;23.75;;;16.90;;
71622;SDS011;59473;53.214;5.728;2023-05-07T12:17:08;23.30;;;15.97;;
71622;SDS011;59473;53.214;5.728;2023-05-07T12:19:34;24.20;;;16.35;;
71622;SDS011;59473;53.214;5.728;2023-05-07T12:21:59;24.50;;;16.80;;
71622;SDS011;59473;53.214;5.728;2023-05-07T12:24:25;22.92;;;16.10;;
71622;SDS011;59473;53.214;5.728;2023-05-07T12:26:50;23.80;;;16.37;;
71622;SDS011;59473;53.214;5.728;2023-05-07T12:29:15;24.80;;;15.83;;
71622;SDS011;59473;53.214;5.728;2023-05-07T12:31:41;25.20;;;16.00;;
71622;SDS011;59473;53.214;5.728;2023-05-07T12:34:06;22.97;;;14.30;;
71622;SDS011;59473;53.214;5.728;2023-05-07T12:36:38;22.88;;;15.63;;
71622;SDS011;59473;53.214;5.728;2023-05-07T12:39:04;22.13;;;15.93;;
71622;SDS011;59473;53.214;5.728;2023-05-07T12:41:30;22.42;;;15.23;;
71622;SDS011;59473;53.214;5.728;2023-05-07T12:43:56;22.30;;;15.10;;
71622;SDS011;59473;53.214;5.728;2023-05-07T12:46:21;19.98;;;13.73;;
71622;SDS011;59473;53.214;5.728;2023-05-07T12:48:48;22.85;;;15.25;;
71622;SDS011;59473;53.214;5.728;2023-05-07T12:51:13;23.97;;;14.97;;
71622;SDS011;59473;53.214;5.728;2023-05-07T12:53:40;21.65;;;14.60;;
71622;SDS011;59473;53.214;5.728;2023-05-07T12:56:09;20.20;;;14.73;;
71622;SDS011;59473;53.214;5.728;2023-05-07T12:58:34;21.35;;;15.05;;
71622;SDS011;59473;53.214;5.728;2023-05-07T13:01:01;21.03;;;14.10;;
71622;SDS011;59473;53.214;5.728;2023-05-07T13:03:29;22.10;;;14.23;;
71622;SDS011;59473;53.214;5.728;2023-05-07T13:05:55;21.13;;;13.80;;
71622;SDS011;59473;53.214;5.728;2023-05-07T13:08:28;20.73;;;13.60;;
71622;SDS011;59473;53.214;5.728;2023-05-07T13:10:54;20.58;;;14.18;;
71622;SDS011;59473;53.214;5.728;2023-05-07T13:13:20;20.20;;;13.87;;
71622;SDS011;59473;53.214;5.728;2023-05-07T13:15:45;18.80;;;12.87;;
71622;SDS011;59473;53.214;5.728;2023-05-07T13:18:10;20.70;;;14.30;;
71622;SDS011;59473;53.214;5.728;2023-05-07T13:20:36;18.53;;;13.70;;
71622;SDS011;59473;53.214;5.728;2023-05-07T13:23:01;19.83;;;12.20;;
71622;SDS011;59473;53.214;5.728;2023-05-07T13:25:27;17.23;;;12.57;;
71622;SDS011;59473;53.214;5.728;2023-05-07T13:27:52;17.88;;;11.63;;
71622;SDS011;59473;53.214;5.728;2023-05-07T13:30:17;18.30;;;13.07;;
71622;SDS011;59473;53.214;5.728;2023-05-07T13:32:42;17.63;;;11.93;;
71622;SDS011;59473;53.214;5.728;2023-05-07T13:35:08;16.70;;;11.57;;
71622;SDS011;59473;53.214;5.728;2023-05-07T13:37:34;17.70;;;12.80;;
71622;SDS011;59473;53.214;5.728;2023-05-07T13:39:59;18.57;;;12.53;;
71622;SDS011;59473;53.214;5.728;2023-05-07T13:42:24;17.23;;;12.18;;
71622;SDS011;59473;53.214;5.728;2023-05-07T13:44:49;17.42;;;13.18;;
71622;SDS011;59473;53.214;5.728;2023-05-07T13:47:15;19.48;;;13.57;;
71622;SDS011;59473;53.214;5.728;2023-05-07T13:49:40;18.27;;;13.50;;
71622;SDS011;59473;53.214;5.728;2023-05-07T13:52:05;17.70;;;12.80;;
71622;SDS011;59473;53.214;5.728;2023-05-07T13:54:30;18.48;;;12.55;;
71622;SDS011;59473;53.214;5.728;2023-05-07T13:56:56;18.23;;;13.43;;
71622;SDS011;59473;53.214;5.728;2023-05-07T13:59:21;19.07;;;12.17;;
71622;SDS011;59473;53.214;5.728;2023-05-07T14:01:46;16.77;;;11.63;;
71622;SDS011;59473;53.214;5.728;2023-05-07T14:04:12;19.33;;;12.77;;
71622;SDS011;59473;53.214;5.728;2023-05-07T14:06:37;19.50;;;13.80;;
71622;SDS011;59473;53.214;5.728;2023-05-07T14:09:02;19.60;;;13.50;;
71622;SDS011;59473;53.214;5.728;2023-05-07T14:11:27;18.53;;;12.80;;
71622;SDS011;59473;53.214;5.728;2023-05-07T14:13:53;18.53;;;13.13;;
71622;SDS011;59473;53.214;5.728;2023-05-07T14:16:18;18.43;;;12.47;;
71622;SDS011;59473;53.214;5.728;2023-05-07T14:18:43;20.50;;;12.50;;
71622;SDS011;59473;53.214;5.728;2023-05-07T14:21:08;18.93;;;12.77;;
71622;SDS011;59473;53.214;5.728;2023-05-07T14:23:34;19.50;;;13.50;;
71622;SDS011;59473;53.214;5.728;2023-05-07T14:26:00;17.23;;;12.17;;